Time;durP1;ratioP1;P1;durP2;ratioP2;P2;SDS_P1;SDS_P2;PMS_P1;PMS_P2;Temp;Humidity;BMP_temperature;BMP_pressure;BME280_temperature;BME280_humidity;BME280_pressure;Samples;Min_cycle;Max_cycle;Signal;HPM_P1;HPM_P2
2022/03/24 00:00:30;;;;;;;;;;;1.40;99.90;;;;;;5092764;28;19967;-71
2022/03/24 00:02:57;;;;;;;;;;;1.40;99.90;;;;;;5083897;28;19931;-71
2022/03/24 00:05:23;;;;;;;;;;;1.30;99.90;;;;;;5102003;28;19924;-71
2022/03/24 00:07:50;;;;;;;;;;;1.30;99.90;;;;;;5109815;28;20530;-71
2022/03/24 00:10:17;;;;;;;;;;;1.20;99.90;;;;;;5111247;28;19930;-71
2022/03/24 00:12:44;;;;;;;;;;;1.30;99.90;;;;;;5109919;28;19928;-71
2022/03/24 00:15:11;;;;;;;;;;;1.30;99.90;;;;;;5109809;28;19946;-71
2022/03/24 00:17:37;;;;;;;;;;;1.20;99.90;;;;;;5111390;28;20020;-71
2022/03/24 00:20:04;;;;;;;;;;;1.20;99.90;;;;;;5095191;28;19932;-71
2022/03/24 00:22:33;;;;;;;;;;;1.20;99.90;;;;;;5111906;27;19928;-71
2022/03/24 00:25:00;;;;;;;;;;;1.30;99.90;;;;;;5107221;28;19923;-71
2022/03/24 00:27:27;;;;;;;;;;;1.50;99.90;;;;;;5109430;28;19923;-71
2022/03/24 00:29:54;;;;;;;;;;;1.50;99.90;;;;;;5110917;28;20036;-71
2022/03/24 00:32:21;;;;;;;;;;;1.50;99.90;;;;;;5092455;28;20457;-71
2022/03/24 00:34:50;;;;;;;;;;;1.40;99.90;;;;;;5106176;28;19967;-71
2022/03/24 00:37:17;;;;;;;;;;;1.30;99.90;;;;;;5101584;28;20035;-71
2022/03/24 00:39:44;;;;;;;;;;;1.30;99.90;;;;;;5105738;28;20315;-71
2022/03/24 00:42:14;;;;;;;;;;;1.30;99.90;;;;;;5084781;28;19969;-71
2022/03/24 00:44:44;;;;;;;;;;;1.30;99.90;;;;;;5095593;28;19924;-71
2022/03/24 00:47:13;;;;;;;;;;;1.30;99.90;;;;;;5101316;28;19924;-71
2022/03/24 00:49:41;;;;;;;;;;;1.30;99.90;;;;;;5109938;28;19976;-71
2022/03/24 00:52:09;;;;;;;;;;;1.20;99.90;;;;;;5097344;28;20015;-71
2022/03/24 00:54:36;;;;;;;;;;;1.10;99.90;;;;;;5106020;28;20007;-71
2022/03/24 00:57:03;;;;;;;;;;;1.00;99.90;;;;;;5092025;28;20041;-71
2022/03/24 00:59:29;;;;;;;;;;;0.90;99.90;;;;;;5106943;28;19953;-71
2022/03/24 01:01:56;;;;;;;;;;;0.80;99.90;;;;;;5093773;28;19924;-71
2022/03/24 01:04:23;;;;;;;;;;;0.70;99.90;;;;;;5109659;28;19939;-71
2022/03/24 01:06:50;;;;;;;;;;;0.60;99.90;;;;;;5102073;28;20030;-71
2022/03/24 01:09:16;;;;;;;;;;;0.60;99.90;;;;;;5110126;28;19970;-71
2022/03/24 01:11:43;;;;;;;;;;;0.60;99.90;;;;;;5090400;28;19932;-71
2022/03/24 01:14:11;;;;;;;;;;;0.50;99.90;;;;;;5080544;28;20449;-71
2022/03/24 01:16:37;;;;;;;;;;;0.50;99.90;;;;;;5109998;28;20445;-71
2022/03/24 01:19:05;;;;;;;;;;;0.40;99.90;;;;;;5095557;28;19924;-71
2022/03/24 01:21:33;;;;;;;;;;;0.40;99.90;;;;;;5087997;28;20018;-71
2022/03/24 01:24:01;;;;;;;;;;;0.40;99.90;;;;;;5091653;28;19928;-71
2022/03/24 01:26:28;;;;;;;;;;;0.40;99.90;;;;;;5075511;28;19951;-71
2022/03/24 01:28:55;;;;;;;;;;;0.40;99.90;;;;;;5093324;28;19946;-71
2022/03/24 01:31:22;;;;;;;;;;;0.40;99.90;;;;;;5096266;28;19924;-71
2022/03/24 01:33:49;;;;;;;;;;;0.30;99.90;;;;;;5090908;28;19928;-71
2022/03/24 01:36:18;;;;;;;;;;;0.20;99.90;;;;;;5096919;28;19927;-70
2022/03/24 01:38:47;;;;;;;;;;;0.10;99.90;;;;;;5094681;28;19930;-71
2022/03/24 01:41:18;;;;;;;;;;;0.10;99.90;;;;;;5092504;28;19927;-71
2022/03/24 01:43:45;;;;;;;;;;;0.10;99.90;;;;;;5088975;28;19977;-70
2022/03/24 01:46:12;;;;;;;;;;;0.30;99.90;;;;;;5093015;28;19932;-71
2022/03/24 01:48:40;;;;;;;;;;;0.40;99.90;;;;;;5105699;28;19923;-71
2022/03/24 01:51:07;;;;;;;;;;;0.40;99.90;;;;;;5102739;28;20006;-71
2022/03/24 01:53:34;;;;;;;;;;;0.40;99.90;;;;;;5094126;28;20011;-71
2022/03/24 01:56:01;;;;;;;;;;;0.40;99.90;;;;;;5101813;28;20006;-70
2022/03/24 01:58:28;;;;;;;;;;;0.40;99.90;;;;;;5108654;28;19934;-70
2022/03/24 02:01:15;;;;;;;;;;;0.50;99.90;;;;;;5110031;28;19924;-70
2022/03/24 02:03:42;;;;;;;;;;;0.50;99.90;;;;;;5101072;28;20007;-70
2022/03/24 02:06:09;;;;;;;;;;;0.50;99.90;;;;;;5100302;28;19924;-70
2022/03/24 02:08:36;;;;;;;;;;;0.50;99.90;;;;;;5098235;28;20408;-70
2022/03/24 02:11:03;;;;;;;;;;;0.40;99.90;;;;;;5091482;28;20345;-70
2022/03/24 02:13:29;;;;;;;;;;;0.30;99.90;;;;;;5108113;28;20038;-70
2022/03/24 02:15:57;;;;;;;;;;;0.20;99.90;;;;;;5103818;28;19932;-70
2022/03/24 02:18:26;;;;;;;;;;;0.00;99.90;;;;;;5109562;28;20281;-70
2022/03/24 02:20:53;;;;;;;;;;;0.00;99.90;;;;;;5097902;28;19925;-70
2022/03/24 02:23:22;;;;;;;;;;;-0.10;99.90;;;;;;5110745;28;19932;-70
2022/03/24 02:25:49;;;;;;;;;;;-0.10;99.90;;;;;;5107824;28;19977;-70
2022/03/24 02:28:18;;;;;;;;;;;-0.30;99.90;;;;;;5110586;28;20066;-70
2022/03/24 02:30:47;;;;;;;;;;;-0.30;99.90;;;;;;5101938;28;19935;-70
2022/03/24 02:33:14;;;;;;;;;;;-0.40;99.90;;;;;;5110625;28;19958;-70
2022/03/24 02:35:41;;;;;;;;;;;-0.40;99.90;;;;;;5107032;28;20003;-70
2022/03/24 02:38:09;;;;;;;;;;;-0.40;99.90;;;;;;5089917;28;20270;-70
2022/03/24 02:40:36;;;;;;;;;;;-0.40;99.90;;;;;;5108224;28;19959;-70
2022/03/24 02:43:02;;;;;;;;;;;-0.40;99.90;;;;;;5094879;28;19924;-70
2022/03/24 02:45:29;;;;;;;;;;;-0.40;99.90;;;;;;5095014;28;19924;-70
2022/03/24 02:47:56;;;;;;;;;;;-0.40;99.90;;;;;;5077462;28;20330;-70
2022/03/24 02:50:23;;;;;;;;;;;-0.30;99.90;;;;;;5102131;28;19924;-70
2022/03/24 02:52:49;;;;;;;;;;;-0.20;99.90;;;;;;5114002;28;19923;-70
2022/03/24 02:55:16;;;;;;;;;;;0.10;99.90;;;;;;5103835;28;19928;-70
2022/03/24 02:57:43;;;;;;;;;;;0.40;99.90;;;;;;5110598;28;19924;-70
2022/03/24 03:00:10;;;;;;;;;;;0.80;99.90;;;;;;5105419;28;20314;-70
2022/03/24 03:02:42;;;;;;;;;;;1.10;99.90;;;;;;5096239;28;19956;-70
2022/03/24 03:05:08;;;;;;;;;;;1.40;99.90;;;;;;5104950;28;19934;-70
2022/03/24 03:07:35;;;;;;;;;;;1.70;99.90;;;;;;5102502;28;20010;-70
2022/03/24 03:10:03;;;;;;;;;;;1.90;99.90;;;;;;5112925;28;19949;-70
2022/03/24 03:12:29;;;;;;;;;;;2.00;99.90;;;;;;5103781;28;19947;-70
2022/03/24 03:14:58;;;;;;;;;;;2.10;99.90;;;;;;5094120;28;19924;-70
2022/03/24 03:17:28;;;;;;;;;;;2.10;99.90;;;;;;5101320;28;19964;-70
2022/03/24 03:19:55;;;;;;;;;;;2.10;99.90;;;;;;5095832;28;19927;-70
2022/03/24 03:22:22;;;;;;;;;;;2.20;99.90;;;;;;5112916;28;20390;-71
2022/03/24 03:24:48;;;;;;;;;;;2.20;99.90;;;;;;5113173;28;20003;-71
2022/03/24 03:27:15;;;;;;;;;;;2.10;99.90;;;;;;5096878;28;19962;-70
2022/03/24 03:29:42;;;;;;;;;;;1.90;99.90;;;;;;5090890;28;19924;-71
2022/03/24 03:32:14;;;;;;;;;;;1.80;99.90;;;;;;5093446;28;19927;-70
2022/03/24 03:34:43;;;;;;;;;;;1.60;99.90;;;;;;5102699;28;20023;-71
2022/03/24 03:37:11;;;;;;;;;;;1.40;99.90;;;;;;5092902;28;20607;-70
2022/03/24 03:39:37;;;;;;;;;;;1.40;99.90;;;;;;5097577;28;19967;-71
2022/03/24 03:42:04;;;;;;;;;;;1.40;99.90;;;;;;5111937;28;20309;-71
2022/03/24 03:44:31;;;;;;;;;;;1.30;99.90;;;;;;5099673;28;20027;-71
2022/03/24 03:46:58;;;;;;;;;;;1.20;99.90;;;;;;5076661;28;20778;-70
2022/03/24 03:49:25;;;;;;;;;;;1.00;99.90;;;;;;5112525;28;19924;-70
2022/03/24 03:52:13;;;;;;;;;;;0.80;99.90;;;;;;5111055;28;19924;-70
2022/03/24 03:54:40;;;;;;;;;;;0.60;99.90;;;;;;5097013;28;19924;-71
2022/03/24 03:57:07;;;;;;;;;;;0.40;99.90;;;;;;5104212;28;20440;-70
2022/03/24 03:59:34;;;;;;;;;;;0.20;99.90;;;;;;5093826;28;19976;-70
2022/03/24 04:02:00;;;;;;;;;;;0.10;99.90;;;;;;5076496;28;19971;-70
2022/03/24 04:04:27;;;;;;;;;;;-0.10;99.90;;;;;;5104427;28;19979;-70
2022/03/24 04:06:54;;;;;;;;;;;-0.30;99.90;;;;;;5106386;28;19971;-70
2022/03/24 04:09:21;;;;;;;;;;;-0.40;99.90;;;;;;5107613;28;19923;-70
2022/03/24 04:11:47;;;;;;;;;;;-0.60;99.90;;;;;;5094615;28;20433;-70
2022/03/24 04:14:14;;;;;;;;;;;-0.80;99.90;;;;;;5103436;28;19978;-70
2022/03/24 04:16:43;;;;;;;;;;;-0.90;99.90;;;;;;5099145;28;20027;-69
2022/03/24 04:19:10;;;;;;;;;;;-1.10;99.90;;;;;;5093236;28;19924;-70
2022/03/24 04:21:38;;;;;;;;;;;-1.20;99.90;;;;;;5107553;28;20022;-70
2022/03/24 04:24:04;;;;;;;;;;;-1.20;99.90;;;;;;5092975;28;19924;-69
2022/03/24 04:26:34;;;;;;;;;;;-1.30;99.90;;;;;;5092909;28;20018;-69
2022/03/24 04:29:01;;;;;;;;;;;-1.30;99.90;;;;;;5108775;28;20324;-70
2022/03/24 04:31:28;;;;;;;;;;;-1.40;99.90;;;;;;5091712;28;20389;-69
2022/03/24 04:33:55;;;;;;;;;;;-1.40;99.90;;;;;;5074794;28;20394;-70
2022/03/24 04:36:21;;;;;;;;;;;-1.40;99.90;;;;;;5105261;28;19966;-69
2022/03/24 04:38:48;;;;;;;;;;;-1.50;99.90;;;;;;5094165;28;20367;-70
2022/03/24 04:41:15;;;;;;;;;;;-1.40;99.90;;;;;;5106530;28;19959;-69
2022/03/24 04:43:41;;;;;;;;;;;-1.50;99.90;;;;;;5091296;28;19968;-69
2022/03/24 04:46:09;;;;;;;;;;;-1.50;99.90;;;;;;5091894;28;19971;-69
2022/03/24 04:48:36;;;;;;;;;;;-1.50;99.90;;;;;;5092648;28;20018;-69
2022/03/24 04:51:06;;;;;;;;;;;-1.50;99.90;;;;;;5092711;28;20394;-69
2022/03/24 04:53:33;;;;;;;;;;;-1.50;99.90;;;;;;5094673;28;19985;-69
2022/03/24 04:56:00;;;;;;;;;;;-1.60;99.90;;;;;;5111676;28;19923;-69
2022/03/24 04:58:27;;;;;;;;;;;-1.60;99.90;;;;;;5099514;28;19932;-69
2022/03/24 05:00:54;;;;;;;;;;;-1.70;99.90;;;;;;5092338;28;19924;-69
2022/03/24 05:03:21;;;;;;;;;;;-1.70;99.90;;;;;;5111269;28;20014;-69
2022/03/24 05:05:48;;;;;;;;;;;-1.70;99.90;;;;;;5109763;28;19931;-69
2022/03/24 05:08:14;;;;;;;;;;;-1.70;99.90;;;;;;5094716;28;19924;-69
2022/03/24 05:10:41;;;;;;;;;;;-1.70;99.90;;;;;;5092043;28;20007;-69
2022/03/24 05:13:08;;;;;;;;;;;-1.80;99.90;;;;;;5100805;28;19924;-69
2022/03/24 05:15:35;;;;;;;;;;;-1.80;99.90;;;;;;5109961;28;19924;-69
2022/03/24 05:18:03;;;;;;;;;;;-1.90;99.90;;;;;;5092990;28;20045;-69
2022/03/24 05:20:30;;;;;;;;;;;-1.80;99.90;;;;;;5086911;28;19934;-69
2022/03/24 05:22:57;;;;;;;;;;;-1.80;99.90;;;;;;5091662;28;20014;-69
2022/03/24 05:25:26;;;;;;;;;;;-1.80;99.90;;;;;;5098001;28;19924;-69
2022/03/24 05:27:57;;;;;;;;;;;-1.70;99.90;;;;;;5099671;28;19978;-69
2022/03/24 05:30:27;;;;;;;;;;;-1.60;99.90;;;;;;5106254;28;19924;-69
2022/03/24 05:32:54;;;;;;;;;;;-1.50;99.90;;;;;;5090587;28;20552;-69
2022/03/24 05:35:21;;;;;;;;;;;-1.50;99.90;;;;;;5106218;28;20006;-69
2022/03/24 05:37:48;;;;;;;;;;;-1.40;99.90;;;;;;5091611;28;19924;-69
2022/03/24 05:40:15;;;;;;;;;;;-1.30;99.90;;;;;;5095999;28;20597;-69
2022/03/24 05:42:41;;;;;;;;;;;-1.20;99.90;;;;;;5109796;28;19963;-69
2022/03/24 05:45:08;;;;;;;;;;;-1.10;99.90;;;;;;5094636;28;19924;-69
2022/03/24 05:47:38;;;;;;;;;;;-1.00;99.90;;;;;;5109567;28;19928;-69
2022/03/24 05:50:05;;;;;;;;;;;-0.90;99.90;;;;;;5098673;28;19925;-69
2022/03/24 05:52:35;;;;;;;;;;;-0.80;99.90;;;;;;5106121;28;20575;-69
2022/03/24 05:55:02;;;;;;;;;;;-0.70;99.90;;;;;;5096872;28;19962;-69
2022/03/24 05:57:31;;;;;;;;;;;-0.50;99.90;;;;;;5100432;28;19924;-69
2022/03/24 05:59:58;;;;;;;;;;;-0.30;99.90;;;;;;5091478;28;20020;-69
2022/03/24 06:02:25;;;;;;;;;;;-0.20;99.90;;;;;;5098871;28;20014;-70
2022/03/24 06:04:53;;;;;;;;;;;0.00;99.90;;;;;;5106456;28;19958;-70
2022/03/24 06:07:20;;;;;;;;;;;0.20;99.90;;;;;;5092718;28;19924;-69
2022/03/24 06:09:48;;;;;;;;;;;0.50;99.90;;;;;;5105586;28;19971;-70
2022/03/24 06:12:15;;;;;;;;;;;0.70;99.90;;;;;;5090912;28;20356;-70
2022/03/24 06:14:42;;;;;;;;;;;0.90;99.90;;;;;;5090734;28;20338;-70
2022/03/24 06:17:09;;;;;;;;;;;1.10;99.90;;;;;;5092860;28;19930;-70
2022/03/24 06:19:37;;;;;;;;;;;1.40;99.90;;;;;;5104078;28;20011;-70
2022/03/24 06:22:04;;;;;;;;;;;1.70;99.90;;;;;;5085568;28;19924;-70
2022/03/24 06:24:31;;;;;;;;;;;2.10;99.90;;;;;;5109709;28;19967;-70
2022/03/24 06:27:01;;;;;;;;;;;3.00;99.90;;;;;;5107015;28;19928;-71
2022/03/24 06:29:27;;;;;;;;;;;4.20;99.90;;;;;;5093594;28;19928;-71
2022/03/24 06:31:54;;;;;;;;;;;5.50;99.90;;;;;;5110235;28;20024;-71
2022/03/24 06:34:21;;;;;;;;;;;6.70;99.90;;;;;;5099146;28;19978;-71
2022/03/24 06:36:47;;;;;;;;;;;7.60;99.90;;;;;;5090712;28;19959;-70
2022/03/24 06:39:16;;;;;;;;;;;8.30;99.90;;;;;;5091106;28;19943;-70
2022/03/24 06:41:43;;;;;;;;;;;9.00;99.90;;;;;;5097122;28;20015;-71
2022/03/24 06:44:10;;;;;;;;;;;9.70;99.90;;;;;;5092677;28;19924;-70
2022/03/24 06:46:39;;;;;;;;;;;10.20;99.90;;;;;;5091036;28;20014;-70
2022/03/24 06:49:06;;;;;;;;;;;10.80;99.90;;;;;;5090567;28;20015;-70
2022/03/24 06:51:34;;;;;;;;;;;11.20;99.90;;;;;;5101578;28;19963;-70
2022/03/24 06:54:02;;;;;;;;;;;11.40;99.90;;;;;;5087458;28;20422;-70
2022/03/24 06:56:28;;;;;;;;;;;11.60;99.90;;;;;;5106151;28;19936;-70
2022/03/24 06:58:55;;;;;;;;;;;12.00;99.90;;;;;;5105674;28;19967;-71
2022/03/24 07:01:22;;;;;;;;;;;12.60;99.90;;;;;;5091186;28;19968;-71
2022/03/24 07:03:49;;;;;;;;;;;13.10;99.90;;;;;;5090730;28;19978;-70
2022/03/24 07:06:16;;;;;;;;;;;13.50;99.90;;;;;;5088112;28;19924;-71
2022/03/24 07:08:45;;;;;;;;;;;13.70;99.90;;;;;;5093671;28;19964;-71
2022/03/24 07:11:13;;;;;;;;;;;13.90;99.90;;;;;;5095631;28;19956;-71
2022/03/24 07:13:39;;;;;;;;;;;13.90;99.90;;;;;;5076794;28;19930;-71
2022/03/24 07:16:08;;;;;;;;;;;13.80;99.90;;;;;;5100247;28;19981;-71
2022/03/24 07:18:41;;;;;;;;;;;13.60;99.90;;;;;;5096065;28;20527;-71
2022/03/24 07:21:08;;;;;;;;;;;13.60;99.90;;;;;;5112038;28;19927;-71
2022/03/24 07:23:35;;;;;;;;;;;13.70;99.50;;;;;;5095360;28;20371;-71
2022/03/24 07:26:01;;;;;;;;;;;13.60;98.80;;;;;;5100673;28;19928;-71
2022/03/24 07:28:28;;;;;;;;;;;13.70;99.00;;;;;;5107496;28;19924;-71
2022/03/24 07:31:07;;;;;;;;;;;13.70;98.00;;;;;;5109515;28;20651;-71
2022/03/24 07:33:34;;;;;;;;;;;13.90;98.10;;;;;;5103561;28;19927;-71
2022/03/24 07:36:07;;;;;;;;;;;14.10;98.30;;;;;;5091893;28;19956;-71
2022/03/24 07:38:34;;;;;;;;;;;14.40;99.00;;;;;;5093760;28;19931;-71
2022/03/24 07:41:01;;;;;;;;;;;14.50;96.80;;;;;;5093934;28;20023;-71
2022/03/24 07:43:30;;;;;;;;;;;14.20;97.80;;;;;;5094101;28;20367;-71
2022/03/24 07:45:57;;;;;;;;;;;13.90;97.20;;;;;;5102112;28;19924;-71
2022/03/24 07:48:27;;;;;;;;;;;14.00;97.00;;;;;;5090600;28;19928;-71
2022/03/24 07:50:55;;;;;;;;;;;14.20;97.00;;;;;;5101985;28;19924;-71
2022/03/24 07:53:32;;;;;;;;;;;14.10;96.10;;;;;;5093843;28;20014;-71
2022/03/24 07:55:59;;;;;;;;;;;13.70;95.60;;;;;;5097627;28;20011;-71
2022/03/24 07:58:26;;;;;;;;;;;13.60;95.70;;;;;;5108707;28;19946;-71
2022/03/24 08:00:53;;;;;;;;;;;13.90;95.80;;;;;;5092826;28;20061;-71
2022/03/24 08:03:20;;;;;;;;;;;14.00;95.50;;;;;;5093300;28;19924;-71
2022/03/24 08:05:48;;;;;;;;;;;13.80;95.30;;;;;;5093204;28;20009;-71
2022/03/24 08:08:15;;;;;;;;;;;14.00;96.60;;;;;;5093143;28;20010;-71
2022/03/24 08:10:42;;;;;;;;;;;13.60;95.30;;;;;;5111104;28;20014;-71
2022/03/24 08:13:15;;;;;;;;;;;13.70;95.20;;;;;;5111754;28;19924;-71
2022/03/24 08:15:42;;;;;;;;;;;13.80;95.10;;;;;;5103036;28;19977;-71
2022/03/24 08:18:09;;;;;;;;;;;14.30;95.10;;;;;;5097579;28;19924;-71
2022/03/24 08:20:37;;;;;;;;;;;14.70;94.50;;;;;;5109160;28;20042;-71
2022/03/24 08:23:05;;;;;;;;;;;14.40;94.30;;;;;;5112033;28;20019;-71
2022/03/24 08:25:34;;;;;;;;;;;14.30;94.20;;;;;;5101783;28;20011;-71
2022/03/24 08:28:02;;;;;;;;;;;14.50;95.30;;;;;;5082448;28;20386;-71
2022/03/24 08:30:30;;;;;;;;;;;15.10;94.00;;;;;;5100635;28;19931;-71
2022/03/24 08:32:57;;;;;;;;;;;15.30;94.00;;;;;;5092716;28;20030;-71
2022/03/24 08:35:24;;;;;;;;;;;15.50;94.10;;;;;;5107759;28;19955;-72
2022/03/24 08:37:51;;;;;;;;;;;15.80;94.20;;;;;;5100057;28;20049;-71
2022/03/24 08:40:18;;;;;;;;;;;16.00;93.30;;;;;;5105756;28;19928;-71
2022/03/24 08:42:45;;;;;;;;;;;15.90;93.00;;;;;;5090374;28;19928;-71
2022/03/24 08:45:15;;;;;;;;;;;15.90;93.10;;;;;;5092324;28;20214;-71
2022/03/24 08:47:42;;;;;;;;;;;16.10;94.00;;;;;;5106571;28;19974;-71
2022/03/24 08:50:12;;;;;;;;;;;16.20;93.60;;;;;;5092458;28;20006;-69
2022/03/24 08:52:39;;;;;;;;;;;16.70;93.20;;;;;;5092556;28;20185;-70
2022/03/24 08:55:06;;;;;;;;;;;17.10;92.60;;;;;;5094130;28;20687;-70
2022/03/24 08:57:34;;;;;;;;;;;17.50;92.50;;;;;;5091864;28;20677;-70
2022/03/24 09:00:03;;;;;;;;;;;18.00;92.00;;;;;;5092169;28;19924;-70
2022/03/24 09:02:30;;;;;;;;;;;18.00;92.10;;;;;;5100000;28;19924;-71
2022/03/24 09:04:57;;;;;;;;;;;18.40;91.80;;;;;;5098644;28;19985;-72
2022/03/24 09:07:39;;;;;;;;;;;18.60;92.10;;;;;;5093264;28;19927;-71
2022/03/24 09:10:07;;;;;;;;;;;18.80;92.00;;;;;;5104978;28;20357;-71
2022/03/24 09:12:35;;;;;;;;;;;19.40;90.90;;;;;;5076557;28;20393;-71
2022/03/24 09:15:05;;;;;;;;;;;19.70;90.80;;;;;;5104723;28;19923;-71
2022/03/24 09:17:32;;;;;;;;;;;19.70;90.60;;;;;;5084098;28;19924;-71
2022/03/24 09:19:59;;;;;;;;;;;19.70;90.40;;;;;;5108239;28;20014;-71
2022/03/24 09:22:27;;;;;;;;;;;20.00;90.40;;;;;;5110645;28;19923;-71
2022/03/24 09:24:54;;;;;;;;;;;19.30;87.70;;;;;;5096129;28;19924;-71
2022/03/24 09:27:26;;;;;;;;;;;19.60;89.20;;;;;;5090975;28;19924;-71
2022/03/24 09:29:53;;;;;;;;;;;19.40;88.60;;;;;;5091560;28;19928;-71
2022/03/24 09:32:21;;;;;;;;;;;19.80;88.30;;;;;;5091772;28;20555;-71
2022/03/24 09:34:47;;;;;;;;;;;19.90;87.80;;;;;;5099749;28;19935;-71
2022/03/24 09:37:17;;;;;;;;;;;20.50;89.70;;;;;;5094310;28;20359;-71
2022/03/24 09:39:44;;;;;;;;;;;20.40;89.40;;;;;;5095764;28;19967;-70
2022/03/24 09:42:12;;;;;;;;;;;20.70;88.70;;;;;;5090582;28;19931;-71
2022/03/24 09:44:40;;;;;;;;;;;20.70;87.80;;;;;;5091700;28;19930;-70
2022/03/24 09:47:13;;;;;;;;;;;21.00;87.80;;;;;;5107215;28;20397;-71
2022/03/24 09:49:41;;;;;;;;;;;21.30;87.10;;;;;;5102878;28;19931;-71
2022/03/24 09:52:10;;;;;;;;;;;21.00;86.60;;;;;;5094806;28;19937;-71
2022/03/24 09:54:42;;;;;;;;;;;20.30;87.00;;;;;;5096376;28;19925;-71
2022/03/24 09:57:09;;;;;;;;;;;19.40;87.00;;;;;;5090835;28;19986;-70
2022/03/24 09:59:36;;;;;;;;;;;19.30;88.50;;;;;;5091335;28;19936;-71
2022/03/24 10:02:04;;;;;;;;;;;20.10;88.30;;;;;;5091765;28;19938;-71
2022/03/24 10:04:44;;;;;;;;;;;20.90;87.50;;;;;;5106507;28;19936;-71
2022/03/24 10:07:15;;;;;;;;;;;21.50;86.50;;;;;;5100838;28;19978;-70
2022/03/24 10:09:44;;;;;;;;;;;21.20;86.20;;;;;;5104529;28;19930;-71
2022/03/24 10:12:21;;;;;;;;;;;21.60;87.80;;;;;;5093747;28;19971;-71
2022/03/24 10:14:57;;;;;;;;;;;21.90;85.90;;;;;;5101917;28;19924;-70
2022/03/24 10:17:24;;;;;;;;;;;22.40;85.70;;;;;;5104592;28;20342;-70
2022/03/24 10:20:01;;;;;;;;;;;22.80;85.80;;;;;;5100263;28;19956;-71
2022/03/24 10:22:28;;;;;;;;;;;23.30;84.30;;;;;;5091648;28;19971;-69
2022/03/24 10:24:55;;;;;;;;;;;24.00;84.70;;;;;;5082518;28;19977;-69
2022/03/24 10:27:26;;;;;;;;;;;24.80;84.00;;;;;;5099337;28;19924;-70
2022/03/24 10:29:59;;;;;;;;;;;25.00;84.50;;;;;;5101208;28;19930;-70
2022/03/24 10:32:35;;;;;;;;;;;25.40;83.50;;;;;;5091009;28;19924;-70
2022/03/24 10:35:09;;;;;;;;;;;25.70;84.70;;;;;;5091307;28;19959;-70
2022/03/24 10:37:36;;;;;;;;;;;26.10;82.70;;;;;;5102348;28;19968;-69
2022/03/24 10:40:08;;;;;;;;;;;26.40;83.00;;;;;;5090548;28;20324;-69
2022/03/24 10:42:36;;;;;;;;;;;26.70;81.10;;;;;;5104751;28;20435;-70
2022/03/24 10:45:17;;;;;;;;;;;26.60;81.20;;;;;;5111412;28;19974;-70
2022/03/24 10:47:44;;;;;;;;;;;26.90;80.70;;;;;;5101656;28;19966;-69
2022/03/24 10:50:23;;;;;;;;;;;26.40;80.70;;;;;;5078218;28;20385;-69
2022/03/24 10:52:51;;;;;;;;;;;25.70;83.60;;;;;;5095311;28;19928;-69
2022/03/24 10:55:41;;;;;;;;;;;25.60;82.40;;;;;;5097210;28;20018;-69
2022/03/24 10:58:23;;;;;;;;;;;26.10;82.30;;;;;;5103048;28;19953;-69
2022/03/24 11:00:54;;;;;;;;;;;26.70;79.90;;;;;;5101791;28;19928;-69
2022/03/24 11:03:22;;;;;;;;;;;26.00;80.30;;;;;;5113278;28;19924;-70
2022/03/24 11:06:03;;;;;;;;;;;25.40;80.80;;;;;;5111733;28;20320;-69
2022/03/24 11:08:30;;;;;;;;;;;25.00;80.70;;;;;;5111189;28;19927;-69
2022/03/24 11:10:56;;;;;;;;;;;24.80;81.10;;;;;;5104856;28;19931;-69
2022/03/24 11:13:27;;;;;;;;;;;25.00;80.50;;;;;;5094809;28;19924;-69
2022/03/24 11:15:54;;;;;;;;;;;25.50;79.80;;;;;;5090740;28;20018;-69
2022/03/24 11:18:25;;;;;;;;;;;25.90;79.70;;;;;;5094640;28;19955;-70
2022/03/24 11:20:54;;;;;;;;;;;26.30;79.40;;;;;;5101754;28;20011;-69
2022/03/24 11:23:21;;;;;;;;;;;26.70;79.90;;;;;;5108918;28;19930;-73
2022/03/24 11:25:57;;;;;;;;;;;27.40;77.10;;;;;;5094615;28;19969;-69
2022/03/24 11:28:23;;;;;;;;;;;27.90;77.70;;;;;;5093644;28;20410;-69
2022/03/24 11:30:51;;;;;;;;;;;28.20;72.50;;;;;;5094194;28;19968;-69
2022/03/24 11:33:18;;;;;;;;;;;27.70;72.30;;;;;;5096335;28;19924;-69
2022/03/24 11:35:45;;;;;;;;;;;27.70;72.90;;;;;;5107441;28;19932;-69
2022/03/24 11:38:12;;;;;;;;;;;27.30;72.70;;;;;;5093435;28;19924;-70
2022/03/24 11:40:39;;;;;;;;;;;26.60;73.90;;;;;;5093632;28;19971;-69
2022/03/24 11:43:13;;;;;;;;;;;26.70;73.80;;;;;;5093502;28;19924;-69
2022/03/24 11:45:43;;;;;;;;;;;26.80;72.60;;;;;;5093915;28;19928;-69
2022/03/24 11:48:11;;;;;;;;;;;27.10;75.40;;;;;;5101943;28;19936;-69
2022/03/24 11:50:42;;;;;;;;;;;27.60;73.70;;;;;;5093426;28;19960;-70
2022/03/24 11:53:11;;;;;;;;;;;27.40;72.80;;;;;;5103385;28;19996;-71
2022/03/24 11:55:38;;;;;;;;;;;26.40;73.10;;;;;;5098575;28;19965;-70
2022/03/24 11:58:06;;;;;;;;;;;25.90;75.00;;;;;;5094092;28;19946;-68
2022/03/24 12:00:32;;;;;;;;;;;25.80;73.60;;;;;;5111753;28;19963;-69
2022/03/24 12:03:00;;;;;;;;;;;25.60;74.20;;;;;;5084421;28;19924;-68
2022/03/24 12:05:47;;;;;;;;;;;25.70;74.40;;;;;;5100052;28;19956;-69
2022/03/24 12:08:13;;;;;;;;;;;25.50;75.00;;;;;;5099038;28;20019;-69
2022/03/24 12:10:40;;;;;;;;;;;25.50;75.50;;;;;;5095954;28;19928;-69
2022/03/24 12:13:22;;;;;;;;;;;25.40;75.90;;;;;;5103649;28;20267;-69
2022/03/24 12:16:07;;;;;;;;;;;25.30;74.70;;;;;;5089865;28;19924;-69
2022/03/24 12:18:41;;;;;;;;;;;24.90;77.50;;;;;;5097578;28;20014;-69
2022/03/24 12:21:17;;;;;;;;;;;25.30;74.60;;;;;;5112339;28;19930;-69
2022/03/24 12:24:01;;;;;;;;;;;25.30;75.50;;;;;;5095618;28;19924;-69
2022/03/24 12:26:29;;;;;;;;;;;25.20;74.40;;;;;;5098957;28;19930;-69
2022/03/24 12:29:13;;;;;;;;;;;24.40;75.20;;;;;;5101903;28;20018;-69
2022/03/24 12:31:56;;;;;;;;;;;24.80;77.10;;;;;;5091895;28;19927;-68
2022/03/24 12:34:38;;;;;;;;;;;25.20;74.50;;;;;;5105618;28;20015;-69
2022/03/24 12:37:31;;;;;;;;;;;24.90;74.10;;;;;;5092695;28;20446;-69
2022/03/24 12:40:13;;;;;;;;;;;24.90;73.80;;;;;;5100493;28;19923;-69
2022/03/24 12:42:52;;;;;;;;;;;24.50;75.30;;;;;;5095817;28;20023;-69
2022/03/24 12:45:25;;;;;;;;;;;24.20;75.70;;;;;;5113199;28;19946;-69
2022/03/24 12:47:58;;;;;;;;;;;24.50;76.30;;;;;;5100671;28;19923;-69
2022/03/24 12:50:24;;;;;;;;;;;25.10;74.40;;;;;;5099870;28;19967;-69
2022/03/24 12:52:53;;;;;;;;;;;25.40;74.20;;;;;;5099523;28;19986;-69
2022/03/24 12:55:28;;;;;;;;;;;25.60;74.70;;;;;;5090331;28;20034;-69
2022/03/24 12:57:58;;;;;;;;;;;26.20;73.70;;;;;;5091619;28;19924;-69
2022/03/24 13:00:27;;;;;;;;;;;26.50;72.20;;;;;;5105838;28;20662;-69
2022/03/24 13:02:54;;;;;;;;;;;26.40;71.90;;;;;;5091454;28;19924;-69
2022/03/24 13:05:25;;;;;;;;;;;25.80;73.60;;;;;;5107447;28;20003;-69
2022/03/24 13:07:53;;;;;;;;;;;25.50;72.90;;;;;;5091252;28;19924;-69
2022/03/24 13:10:21;;;;;;;;;;;25.40;73.70;;;;;;5073742;28;20399;-69
2022/03/24 13:12:49;;;;;;;;;;;25.30;74.30;;;;;;5105245;28;19924;-69
2022/03/24 13:15:17;;;;;;;;;;;25.70;72.80;;;;;;5093270;28;21904;-69
2022/03/24 13:17:48;;;;;;;;;;;25.70;70.70;;;;;;5097472;28;20077;-69
2022/03/24 13:20:15;;;;;;;;;;;25.70;73.70;;;;;;5107285;28;20928;-69
2022/03/24 13:22:42;;;;;;;;;;;25.80;72.30;;;;;;5105837;28;20538;-69
2022/03/24 13:25:10;;;;;;;;;;;26.00;72.50;;;;;;5092009;28;19934;-69
2022/03/24 13:27:39;;;;;;;;;;;26.60;71.60;;;;;;5093201;28;19998;-69
2022/03/24 13:30:09;;;;;;;;;;;26.60;71.10;;;;;;5092002;28;19924;-69
2022/03/24 13:32:36;;;;;;;;;;;26.20;70.30;;;;;;5094140;28;20014;-69
2022/03/24 13:35:07;;;;;;;;;;;26.00;70.40;;;;;;5102202;28;20386;-69
2022/03/24 13:37:35;;;;;;;;;;;26.30;70.60;;;;;;5091196;28;19924;-69
2022/03/24 13:40:02;;;;;;;;;;;25.80;69.80;;;;;;5092252;28;20003;-69
2022/03/24 13:42:29;;;;;;;;;;;25.70;70.10;;;;;;5109713;28;20425;-69
2022/03/24 13:44:56;;;;;;;;;;;25.70;69.40;;;;;;5094076;28;19924;-69
2022/03/24 13:47:25;;;;;;;;;;;25.40;70.60;;;;;;5109661;28;20023;-69
2022/03/24 13:49:53;;;;;;;;;;;26.20;71.50;;;;;;5093656;28;19924;-69
2022/03/24 13:52:28;;;;;;;;;;;27.00;69.60;;;;;;5091496;28;20007;-69
2022/03/24 13:55:05;;;;;;;;;;;27.40;71.30;;;;;;5073298;28;20450;-68
2022/03/24 13:57:41;;;;;;;;;;;27.90;70.00;;;;;;5106813;28;19939;-68
2022/03/24 14:00:08;;;;;;;;;;;27.50;68.80;;;;;;5096823;28;19930;-68
2022/03/24 14:02:36;;;;;;;;;;;27.30;71.20;;;;;;5105989;28;20413;-69
2022/03/24 14:05:04;;;;;;;;;;;26.90;71.20;;;;;;5091174;28;19928;-69
2022/03/24 14:07:54;;;;;;;;;;;27.00;69.20;;;;;;5090679;28;19970;-69
2022/03/24 14:10:21;;;;;;;;;;;27.50;69.60;;;;;;5099801;28;19928;-69
2022/03/24 14:12:52;;;;;;;;;;;28.00;69.20;;;;;;5097072;28;19939;-69
2022/03/24 14:15:22;;;;;;;;;;;28.20;68.70;;;;;;5099160;28;19933;-69
2022/03/24 14:18:07;;;;;;;;;;;28.50;69.70;;;;;;5088934;28;20315;-69
2022/03/24 14:20:44;;;;;;;;;;;28.30;69.60;;;;;;5099403;28;19924;-69
2022/03/24 14:23:46;;;;;;;;;;;28.10;68.80;;;;;;5090627;28;19928;-69
2022/03/24 14:26:13;;;;;;;;;;;27.70;70.00;;;;;;5026358;28;19971;-69
2022/03/24 14:28:46;;;;;;;;;;;28.20;69.00;;;;;;5019780;28;20023;-69
2022/03/24 14:31:18;;;;;;;;;;;28.30;68.80;;;;;;5021402;28;19925;-69